createdAt,value
2022-12-13T00:00:49.038Z,14.00
2022-12-13T00:03:17.515Z,16.93
2022-12-13T00:05:45.251Z,16.23
2022-12-13T00:08:12.781Z,18.03
2022-12-13T00:10:40.304Z,16.10
2022-12-13T00:13:07.786Z,11.40
2022-12-13T00:15:35.326Z,14.13
2022-12-13T00:18:04.135Z,14.30
2022-12-13T00:20:31.583Z,15.07
2022-12-13T00:22:59.010Z,11.73
2022-12-13T00:25:26.789Z,13.03
2022-12-13T00:27:54.210Z,12.93
2022-12-13T00:30:21.746Z,13.77
2022-12-13T00:32:49.176Z,8.33
2022-12-13T00:35:17.980Z,12.53
2022-12-13T00:37:45.415Z,12.70
2022-12-13T00:40:13.517Z,12.90
2022-12-13T00:42:40.951Z,12.77
2022-12-13T00:45:09.523Z,13.47
2022-12-13T00:47:36.982Z,12.97
2022-12-13T00:50:04.879Z,13.27
2022-12-13T00:52:34.432Z,12.30
2022-12-13T00:55:01.882Z,14.77
2022-12-13T00:57:29.491Z,12.40
2022-12-13T00:59:56.905Z,15.60
2022-12-13T01:02:24.358Z,12.77
2022-12-13T01:04:51.955Z,12.13
2022-12-13T01:07:19.440Z,14.53
2022-12-13T01:09:48.212Z,15.20
2022-12-13T01:12:15.681Z,14.57
2022-12-13T01:14:43.140Z,14.93
2022-12-13T01:17:10.938Z,13.87
2022-12-13T01:19:38.449Z,15.13
2022-12-13T01:22:06.993Z,15.50
2022-12-13T01:24:34.453Z,14.20
2022-12-13T01:27:03.273Z,14.67
2022-12-13T01:29:30.707Z,21.77
2022-12-13T01:31:58.514Z,13.60
2022-12-13T01:34:27.440Z,10.87
2022-12-13T01:36:58.266Z,12.47
2022-12-13T01:39:27.137Z,15.77
2022-12-13T01:41:59.207Z,11.50
2022-12-13T01:44:45.106Z,12.00
2022-12-13T01:47:14.474Z,12.67
2022-12-13T01:49:42.208Z,12.90
2022-12-13T01:52:11.535Z,12.97
2022-12-13T01:54:46.473Z,15.43
2022-12-13T01:57:15.966Z,14.23
2022-12-13T01:59:44.692Z,13.63
2022-12-13T02:02:13.635Z,11.67
2022-12-13T02:04:46.175Z,14.03
2022-12-13T02:07:23.438Z,14.33
2022-12-13T02:09:57.170Z,11.53
2022-12-13T02:12:30.224Z,10.53
2022-12-13T02:15:00.642Z,10.80
2022-12-13T02:17:29.468Z,9.57
2022-12-13T02:20:21.711Z,13.37
2022-12-13T02:22:59.385Z,11.67
2022-12-13T02:25:39.459Z,13.73
2022-12-13T02:28:30.188Z,12.00
2022-12-13T02:31:03.763Z,8.97
2022-12-13T02:33:38.048Z,10.33
2022-12-13T02:36:09.311Z,10.83
2022-12-13T02:38:39.515Z,10.77
2022-12-13T02:41:13.596Z,11.80
2022-12-13T02:43:45.272Z,11.43
2022-12-13T02:46:16.287Z,15.90
2022-12-13T02:48:44.920Z,9.93
2022-12-13T02:51:13.301Z,11.80
2022-12-13T02:53:42.406Z,10.93
2022-12-13T02:56:09.875Z,14.83
2022-12-13T02:58:38.852Z,8.43
2022-12-13T03:01:27.827Z,9.37
2022-12-13T03:04:02.599Z,9.50
2022-12-13T03:06:34.816Z,8.23
2022-12-13T03:09:13.580Z,10.67
2022-12-13T03:12:07.124Z,11.80
2022-12-13T03:14:37.423Z,12.27
2022-12-13T03:17:07.058Z,8.87
2022-12-13T03:19:36.050Z,7.43
2022-12-13T03:22:06.410Z,8.10
2022-12-13T03:24:33.909Z,9.57
2022-12-13T03:27:01.427Z,9.90
2022-12-13T03:29:28.864Z,8.33
2022-12-13T03:31:56.318Z,9.47
2022-12-13T03:34:23.951Z,7.43
2022-12-13T03:36:53.147Z,6.53
2022-12-13T03:39:20.746Z,10.30
2022-12-13T03:41:48.210Z,11.43
2022-12-13T03:44:15.639Z,9.33
2022-12-13T03:46:43.151Z,7.50
2022-12-13T03:49:15.358Z,9.77
2022-12-13T03:51:44.692Z,8.30
2022-12-13T03:54:13.562Z,9.90
2022-12-13T03:56:41.377Z,7.93
2022-12-13T03:59:08.843Z,8.83
2022-12-13T04:01:36.330Z,8.00
2022-12-13T04:04:03.846Z,9.07
2022-12-13T04:06:33.002Z,6.10
2022-12-13T04:09:00.869Z,7.77
2022-12-13T04:11:47.487Z,7.17
2022-12-13T04:14:22.661Z,6.83
2022-12-13T04:16:50.460Z,8.17
2022-12-13T04:19:22.921Z,9.30
2022-12-13T04:21:51.784Z,10.20
2022-12-13T04:24:19.221Z,6.73
2022-12-13T04:26:48.064Z,7.03
2022-12-13T04:29:15.490Z,12.37
2022-12-13T04:31:42.978Z,19.40
2022-12-13T04:34:10.724Z,9.73
2022-12-13T04:36:38.254Z,10.77
2022-12-13T04:39:22.177Z,13.70
2022-12-13T04:41:52.673Z,11.63
2022-12-13T04:44:28.770Z,9.17
2022-12-13T04:47:01.143Z,5.23
2022-12-13T04:49:29.110Z,5.10
2022-12-13T04:52:00.860Z,6.17
2022-12-13T04:54:36.337Z,5.63
2022-12-13T04:57:05.981Z,6.00
2022-12-13T04:59:33.427Z,7.23
2022-12-13T05:02:00.885Z,3.90
2022-12-13T05:04:32.652Z,7.07
2022-12-13T05:07:00.653Z,6.20
2022-12-13T05:09:28.122Z,6.20
2022-12-13T05:12:01.488Z,5.50
2022-12-13T05:14:30.811Z,7.87
2022-12-13T05:16:58.342Z,4.83
2022-12-13T05:19:31.026Z,8.43
2022-12-13T05:22:01.476Z,5.13
2022-12-13T05:24:30.412Z,5.73
2022-12-13T05:26:58.227Z,4.63
2022-12-13T05:29:27.588Z,7.20
2022-12-13T05:31:56.383Z,8.40
2022-12-13T05:34:23.982Z,7.57
2022-12-13T05:36:51.451Z,6.70
2022-12-13T05:39:29.021Z,6.43
2022-12-13T05:42:02.049Z,6.53
2022-12-13T05:44:30.528Z,8.03
2022-12-13T05:46:59.432Z,4.83
2022-12-13T05:49:29.890Z,5.83
2022-12-13T05:51:57.324Z,4.93
2022-12-13T05:54:24.769Z,3.37
2022-12-13T05:56:52.470Z,5.33
2022-12-13T05:59:20.266Z,4.47
2022-12-13T06:01:47.754Z,3.30
2022-12-13T06:04:22.250Z,5.83
2022-12-13T06:06:51.300Z,4.17
2022-12-13T06:09:19.155Z,4.43
2022-12-13T06:11:46.618Z,4.53
2022-12-13T06:14:22.843Z,3.53
2022-12-13T06:16:51.310Z,3.70
2022-12-13T06:19:20.276Z,4.47
2022-12-13T06:21:47.685Z,4.97
2022-12-13T06:24:15.846Z,7.03
2022-12-13T06:26:45.393Z,8.10
2022-12-13T06:29:22.648Z,9.37
2022-12-13T06:31:53.608Z,8.00
2022-12-13T06:34:22.483Z,9.47
2022-12-13T06:36:49.913Z,7.87
2022-12-13T06:39:17.844Z,9.20
2022-12-13T06:41:45.302Z,7.57
2022-12-13T06:44:12.749Z,9.47
2022-12-13T06:46:40.784Z,6.17
2022-12-13T06:49:08.653Z,12.23
2022-12-13T06:51:37.436Z,6.50
2022-12-13T06:54:05.046Z,5.20
2022-12-13T06:56:33.038Z,7.07
2022-12-13T06:59:02.017Z,3.37
2022-12-13T07:01:37.428Z,9.53
2022-12-13T07:04:05.624Z,10.67
2022-12-13T07:06:54.408Z,19.00
2022-12-13T07:09:21.878Z,15.43
2022-12-13T07:11:52.254Z,11.40
2022-12-13T07:14:20.012Z,10.70
2022-12-13T07:16:47.590Z,11.67
2022-12-13T07:19:24.067Z,7.23
2022-12-13T07:21:52.639Z,7.63
2022-12-13T07:24:21.509Z,8.13
2022-12-13T07:26:51.005Z,3.70
2022-12-13T07:29:22.152Z,5.40
2022-12-13T07:31:50.391Z,4.63
2022-12-13T07:34:17.861Z,5.10
2022-12-13T07:36:45.389Z,9.10
2022-12-13T07:39:12.823Z,5.47
2022-12-13T07:41:41.858Z,4.97
2022-12-13T07:44:09.347Z,6.47
2022-12-13T07:46:36.923Z,11.37
2022-12-13T07:49:04.971Z,15.33
2022-12-13T07:51:34.010Z,9.13
2022-12-13T07:54:06.906Z,8.47
2022-12-13T07:56:34.786Z,5.53
2022-12-13T07:59:03.670Z,6.23
2022-12-13T08:01:34.376Z,6.60
2022-12-13T08:04:02.183Z,6.07
2022-12-13T08:06:30.704Z,3.93
2022-12-13T08:08:58.367Z,8.17
2022-12-13T08:11:26.040Z,9.83
2022-12-13T08:13:54.595Z,9.43
2022-12-13T08:16:28.211Z,8.83
2022-12-13T08:19:03.353Z,5.10
2022-12-13T08:24:21.960Z,11.63
2022-12-13T08:26:49.646Z,8.67
2022-12-13T08:29:23.097Z,11.17
2022-12-13T08:32:03.130Z,7.33
2022-12-13T08:34:31.627Z,5.73
2022-12-13T08:37:02.050Z,4.37
2022-12-13T08:39:34.438Z,6.27
2022-12-13T08:42:16.330Z,5.57
2022-12-13T08:44:46.527Z,7.17
2022-12-13T08:47:24.085Z,21.93
2022-12-13T08:49:54.133Z,6.00
2022-12-13T08:52:21.979Z,10.17
2022-12-13T08:54:49.502Z,6.77
2022-12-13T08:57:17.207Z,9.93
2022-12-13T08:59:45.873Z,7.67
2022-12-13T09:02:15.093Z,10.23
2022-12-13T09:04:42.602Z,12.07
2022-12-13T09:07:10.231Z,8.17
2022-12-13T09:09:37.826Z,8.67
2022-12-13T09:12:11.130Z,11.20
2022-12-13T09:14:53.343Z,11.37
2022-12-13T09:17:36.912Z,7.97
2022-12-13T09:20:10.007Z,8.87
2022-12-13T09:22:54.494Z,4.90
2022-12-13T09:25:36.574Z,5.83
2022-12-13T09:28:05.634Z,7.87
2022-12-13T09:30:33.243Z,6.10
2022-12-13T09:33:29.106Z,7.27
2022-12-13T09:35:53.088Z,5.67
2022-12-13T09:38:20.583Z,7.80
2022-12-13T09:40:50.038Z,11.57
2022-12-13T09:43:33.389Z,11.30
2022-12-13T09:46:22.610Z,9.10
2022-12-13T09:48:53.348Z,7.50
2022-12-13T09:51:44.079Z,10.53
2022-12-13T09:54:16.887Z,13.77
2022-12-13T09:56:44.390Z,13.13
2022-12-13T09:59:13.388Z,14.23
2022-12-13T10:01:40.971Z,14.17
2022-12-13T10:04:12.236Z,11.97
2022-12-13T10:06:40.678Z,12.53
2022-12-13T10:09:09.372Z,11.00
2022-12-13T10:11:36.824Z,9.33
2022-12-13T10:14:06.843Z,7.23
2022-12-13T10:16:40.173Z,6.77
2022-12-13T10:19:28.112Z,9.43
2022-12-13T10:22:01.650Z,6.63
2022-12-13T10:24:37.025Z,7.93
2022-12-13T10:27:12.236Z,8.53
2022-12-13T10:29:54.644Z,10.93
2022-12-13T10:32:22.311Z,10.20
2022-12-13T10:34:51.107Z,9.80
2022-12-13T10:37:26.650Z,7.57
2022-12-13T10:39:54.115Z,8.03
2022-12-13T10:42:24.995Z,7.10
2022-12-13T10:45:10.472Z,6.13
2022-12-13T10:47:38.070Z,7.23
2022-12-13T10:50:07.451Z,5.47
2022-12-13T10:52:43.421Z,7.97
2022-12-13T10:55:25.656Z,8.90
2022-12-13T10:57:53.915Z,7.23
2022-12-13T11:00:38.732Z,12.77
2022-12-13T11:03:06.282Z,10.53
2022-12-13T11:05:35.957Z,6.50
2022-12-13T11:08:13.578Z,7.50
2022-12-13T11:10:41.317Z,8.03
2022-12-13T11:13:08.966Z,8.10
2022-12-13T11:15:38.349Z,8.53
2022-12-13T11:18:06.638Z,6.13
2022-12-13T11:20:36.733Z,8.90
2022-12-13T11:23:07.311Z,8.87
2022-12-13T11:25:38.703Z,7.83
2022-12-13T11:28:26.285Z,5.90
2022-12-13T11:31:01.698Z,5.67
2022-12-13T11:33:33.952Z,5.33
2022-12-13T11:36:22.242Z,6.37
2022-12-13T11:38:58.790Z,6.33
2022-12-13T11:41:32.235Z,7.23
2022-12-13T11:44:02.800Z,7.53
2022-12-13T11:46:35.492Z,5.00
2022-12-13T11:49:10.769Z,7.07
2022-12-13T11:51:43.667Z,5.13
2022-12-13T11:54:14.671Z,4.67
2022-12-13T11:57:00.380Z,5.90
2022-12-13T11:59:39.741Z,4.37
2022-12-13T12:02:16.348Z,5.77
2022-12-13T12:04:46.948Z,3.13
2022-12-13T12:07:33.225Z,3.17
2022-12-13T12:10:06.559Z,3.13
2022-12-13T12:12:34.890Z,5.00
2022-12-13T12:15:16.077Z,3.87
2022-12-13T12:17:47.529Z,7.77
2022-12-13T12:20:23.285Z,4.60
2022-12-13T12:23:03.379Z,5.23
2022-12-13T12:25:36.779Z,3.60
2022-12-13T12:28:10.460Z,3.00
2022-12-13T12:30:43.804Z,2.93
2022-12-13T12:33:18.357Z,3.90
2022-12-13T12:35:53.387Z,3.63
2022-12-13T12:38:50.774Z,4.17
2022-12-13T12:41:25.400Z,3.57
2022-12-13T12:43:55.761Z,3.80
2022-12-13T12:46:52.400Z,2.97
2022-12-13T12:49:46.939Z,4.07
2022-12-13T12:52:21.575Z,4.57
2022-12-13T12:55:02.811Z,3.73
2022-12-13T12:57:39.088Z,4.37
2022-12-13T13:00:11.800Z,3.57
2022-12-13T13:02:40.630Z,5.43
2022-12-13T13:05:13.023Z,3.70
2022-12-13T13:07:43.796Z,7.43
2022-12-13T13:10:27.004Z,6.37
2022-12-13T13:13:11.990Z,4.47
2022-12-13T13:15:44.499Z,3.70
2022-12-13T13:18:27.293Z,2.90
2022-12-13T13:21:10.146Z,3.47
2022-12-13T13:23:41.220Z,4.33
2022-12-13T13:26:25.999Z,3.67
2022-12-13T13:29:16.822Z,1.90
2022-12-13T13:32:01.461Z,3.40
2022-12-13T13:34:34.744Z,2.57
2022-12-13T13:37:03.231Z,4.53
2022-12-13T13:39:51.786Z,3.20
2022-12-13T13:42:20.759Z,3.67
2022-12-13T13:45:01.904Z,2.93
2022-12-13T13:47:35.029Z,4.60
2022-12-13T13:50:04.665Z,3.97
2022-12-13T13:52:37.886Z,4.97
2022-12-13T13:55:24.014Z,5.17
2022-12-13T13:58:14.021Z,4.50
2022-12-13T14:01:03.451Z,3.10
2022-12-13T14:03:54.670Z,4.57
2022-12-13T14:06:33.968Z,5.70
2022-12-13T14:09:22.507Z,4.13
2022-12-13T14:12:05.074Z,9.93
2022-12-13T14:14:49.939Z,6.87
2022-12-13T14:17:38.784Z,5.60
2022-12-13T14:20:18.245Z,5.80
2022-12-13T14:22:47.032Z,5.13
2022-12-13T14:25:25.772Z,9.57
2022-12-13T14:27:55.526Z,9.30
2022-12-13T14:30:28.202Z,29.23
2022-12-13T14:32:58.291Z,48.57
2022-12-13T14:35:27.403Z,40.63
2022-12-13T14:37:59.969Z,20.07
2022-12-13T14:40:29.452Z,12.90
2022-12-13T14:42:56.936Z,16.50
2022-12-13T14:45:26.082Z,15.17
2022-12-13T14:47:54.321Z,18.37
2022-12-13T14:50:25.624Z,14.50
2022-12-13T14:52:53.214Z,13.93
2022-12-13T14:55:25.419Z,26.97
2022-12-13T14:57:54.031Z,19.70
2022-12-13T15:00:23.331Z,20.47
2022-12-13T15:02:51.543Z,25.43
2022-12-13T15:05:28.570Z,17.93
2022-12-13T15:07:57.183Z,20.17
2022-12-13T15:10:27.911Z,15.03
2022-12-13T15:12:55.954Z,12.67
2022-12-13T15:15:25.647Z,14.27
2022-12-13T15:18:05.409Z,15.73
2022-12-13T15:20:34.987Z,11.53
2022-12-13T15:23:06.907Z,10.07
2022-12-13T15:25:43.934Z,10.33
2022-12-13T15:28:18.146Z,10.60
2022-12-13T15:30:49.511Z,10.43
2022-12-13T15:33:18.584Z,10.23
2022-12-13T15:35:48.321Z,11.03
2022-12-13T15:38:28.772Z,14.37
2022-12-13T15:40:56.793Z,11.27
2022-12-13T15:43:28.618Z,9.53
2022-12-13T15:45:56.381Z,10.13
2022-12-13T15:48:25.907Z,13.43
2022-12-13T15:51:06.912Z,9.23
2022-12-13T15:53:35.016Z,8.37
2022-12-13T15:56:09.497Z,14.77
2022-12-13T15:58:38.102Z,12.20
2022-12-13T16:01:06.280Z,9.17
2022-12-13T16:03:40.510Z,8.80
2022-12-13T16:06:12.114Z,10.43
2022-12-13T16:08:40.788Z,11.73
2022-12-13T16:11:09.292Z,8.93
2022-12-13T16:13:37.980Z,9.03
2022-12-13T16:16:27.124Z,12.10
2022-12-13T16:18:57.636Z,9.33
2022-12-13T16:21:27.371Z,8.63
2022-12-13T16:23:55.207Z,10.03
2022-12-13T16:26:24.231Z,8.90
2022-12-13T16:28:51.747Z,10.70
2022-12-13T16:31:20.942Z,7.30
2022-12-13T16:33:48.700Z,6.13
2022-12-13T16:36:16.573Z,9.07
2022-12-13T16:38:45.723Z,8.73
2022-12-13T16:41:14.634Z,8.53
2022-12-13T16:43:48.595Z,7.53
2022-12-13T16:47:12.459Z,6.27
2022-12-13T16:49:06.245Z,4.30
2022-12-13T16:51:33.692Z,7.13
2022-12-13T16:54:03.259Z,6.43
2022-12-13T16:56:30.682Z,8.17
2022-12-13T16:58:58.113Z,7.23
2022-12-13T17:01:25.837Z,8.57
2022-12-13T17:03:58.024Z,7.70
2022-12-13T17:06:25.806Z,9.87
2022-12-13T17:08:53.269Z,5.37
2022-12-13T17:11:22.189Z,6.70
2022-12-13T17:13:50.602Z,5.73
2022-12-13T17:16:18.219Z,6.70
2022-12-13T17:18:45.742Z,5.47
2022-12-13T17:21:14.369Z,8.93
2022-12-13T17:23:41.811Z,8.00
2022-12-13T17:26:10.722Z,8.47
2022-12-13T17:28:39.503Z,4.43
2022-12-13T17:31:07.489Z,8.53
2022-12-13T17:33:35.811Z,1.80
2022-12-13T17:36:03.873Z,3.80
2022-12-13T17:38:31.844Z,6.37
2022-12-13T17:41:00.761Z,5.97
2022-12-13T17:43:34.266Z,8.87
2022-12-13T17:46:04.823Z,9.97
2022-12-13T17:48:39.830Z,8.37
2022-12-13T17:51:08.649Z,10.13
2022-12-13T17:53:36.778Z,12.07
2022-12-13T17:56:06.554Z,13.60
2022-12-13T17:58:35.277Z,16.80
2022-12-13T18:01:11.467Z,12.53
2022-12-13T18:03:39.214Z,12.73
2022-12-13T18:06:07.718Z,18.80
2022-12-13T18:08:35.819Z,14.53
2022-12-13T18:13:54.742Z,13.97
2022-12-13T18:16:28.923Z,12.20
2022-12-13T18:19:01.967Z,16.10
2022-12-13T18:21:29.414Z,18.27
2022-12-13T18:23:56.901Z,14.33
2022-12-13T18:26:24.929Z,17.13
2022-12-13T18:28:52.478Z,13.80
2022-12-13T18:31:20.972Z,19.60
2022-12-13T18:33:50.215Z,18.67
2022-12-13T18:36:19.209Z,16.17
2022-12-13T18:38:47.893Z,15.67
2022-12-13T18:41:16.378Z,20.60
2022-12-13T18:43:44.304Z,18.83
2022-12-13T18:46:12.439Z,23.33
2022-12-13T18:48:40.444Z,15.40
2022-12-13T18:51:10.326Z,18.20
2022-12-13T18:53:38.169Z,16.87
2022-12-13T18:56:07.747Z,17.67
2022-12-13T18:58:37.411Z,15.27
2022-12-13T19:01:05.183Z,10.77
2022-12-13T19:03:33.218Z,11.33
2022-12-13T19:06:01.609Z,12.87
2022-12-13T19:08:31.956Z,17.23
2022-12-13T19:11:00.886Z,13.60
2022-12-13T19:13:29.379Z,16.27
2022-12-13T19:16:04.230Z,13.77
2022-12-13T19:18:31.759Z,8.23
2022-12-13T19:20:59.292Z,11.67
2022-12-13T19:23:27.229Z,15.03
2022-12-13T19:25:57.382Z,14.63
2022-12-13T19:28:24.845Z,46.27
2022-12-13T19:30:52.344Z,25.80
2022-12-13T19:33:19.790Z,8.70
2022-12-13T19:35:47.525Z,9.73
2022-12-13T19:38:15.029Z,13.10
2022-12-13T19:40:43.617Z,27.43
2022-12-13T19:43:12.568Z,28.37
2022-12-13T19:45:40.476Z,17.17
2022-12-13T19:48:07.984Z,15.47
2022-12-13T19:50:35.555Z,13.77
2022-12-13T19:53:02.994Z,15.50
2022-12-13T19:55:30.523Z,22.53
2022-12-13T19:57:58.836Z,19.33
2022-12-13T20:00:28.055Z,20.70
2022-12-13T20:02:55.964Z,9.43
2022-12-13T20:05:23.432Z,9.70
2022-12-13T20:07:53.726Z,12.37
2022-12-13T20:10:21.152Z,7.93
2022-12-13T20:12:48.700Z,4.97
2022-12-13T20:15:16.138Z,7.17
2022-12-13T20:17:44.989Z,10.43
2022-12-13T20:20:12.680Z,7.53
2022-12-13T20:22:40.279Z,7.97
2022-12-13T20:25:08.592Z,9.27
2022-12-13T20:27:36.106Z,13.43
2022-12-13T20:30:03.640Z,12.73
2022-12-13T20:32:31.106Z,11.40
2022-12-13T20:35:00.038Z,9.53
2022-12-13T20:37:28.317Z,9.43
2022-12-13T20:39:56.078Z,10.93
2022-12-13T20:42:23.548Z,12.53
2022-12-13T20:44:50.983Z,9.87
2022-12-13T20:47:18.434Z,6.57
2022-12-13T20:49:48.874Z,9.67
2022-12-13T20:52:17.952Z,8.13
2022-12-13T20:54:45.458Z,10.67
2022-12-13T20:57:12.928Z,8.77
2022-12-13T20:59:40.799Z,8.43
2022-12-13T21:02:08.371Z,9.60
2022-12-13T21:04:35.831Z,11.43
2022-12-13T21:07:03.587Z,8.60
2022-12-13T21:09:33.379Z,7.33
2022-12-13T21:12:00.818Z,7.33
2022-12-13T21:14:29.449Z,9.17
2022-12-13T21:16:57.521Z,7.67
2022-12-13T21:19:25.728Z,19.53
2022-12-13T21:21:53.739Z,12.63
2022-12-13T21:24:22.221Z,6.33
2022-12-13T21:26:51.918Z,8.10
2022-12-13T21:29:19.738Z,7.67
2022-12-13T21:31:49.260Z,5.63
2022-12-13T21:34:17.275Z,10.57
2022-12-13T21:36:46.210Z,13.67
2022-12-13T21:39:14.584Z,6.37
2022-12-13T21:41:42.871Z,6.93
2022-12-13T21:44:13.150Z,2.80
2022-12-13T21:47:10.722Z,10.33
2022-12-13T21:49:29.139Z,7.63
2022-12-13T21:51:56.587Z,8.03
2022-12-13T21:54:24.029Z,6.47
2022-12-13T21:57:09.034Z,5.83
2022-12-13T21:59:37.796Z,5.60
2022-12-13T22:02:15.811Z,10.60
2022-12-13T22:04:44.390Z,7.80
2022-12-13T22:07:12.392Z,5.63
2022-12-13T22:09:39.905Z,6.20
2022-12-13T22:12:08.782Z,5.27
2022-12-13T22:14:37.581Z,6.77
2022-12-13T22:17:05.183Z,11.77
2022-12-13T22:19:32.949Z,8.47
2022-12-13T22:22:00.777Z,7.53
2022-12-13T22:24:28.421Z,6.53
2022-12-13T22:26:55.851Z,10.80
2022-12-13T22:29:23.450Z,6.77
2022-12-13T22:31:52.356Z,5.30
2022-12-13T22:34:19.925Z,9.27
2022-12-13T22:36:47.419Z,7.30
2022-12-13T22:39:16.330Z,5.27
2022-12-13T22:41:43.924Z,6.30
2022-12-13T22:44:12.383Z,7.03
2022-12-13T22:46:40.296Z,6.33
2022-12-13T22:49:09.498Z,4.90
2022-12-13T22:51:37.236Z,6.37
2022-12-13T22:54:05.055Z,4.13
2022-12-13T22:56:32.651Z,4.43
2022-12-13T22:59:02.009Z,5.87
2022-12-13T23:01:30.337Z,6.07
2022-12-13T23:03:58.276Z,3.83
2022-12-13T23:06:29.382Z,5.00
2022-12-13T23:08:57.864Z,5.80
2022-12-13T23:11:43.841Z,5.33
2022-12-13T23:14:12.272Z,6.77
2022-12-13T23:16:39.728Z,4.73
2022-12-13T23:19:39.759Z,6.63
2022-12-13T23:21:57.700Z,7.57
2022-12-13T23:24:25.599Z,4.60
2022-12-13T23:26:53.031Z,3.67
2022-12-13T23:29:20.696Z,4.77
2022-12-13T23:31:48.963Z,3.30
2022-12-13T23:34:16.687Z,3.83
2022-12-13T23:36:44.146Z,3.47
2022-12-13T23:39:13.000Z,6.67
2022-12-13T23:41:40.571Z,4.70
2022-12-13T23:44:08.028Z,6.27
2022-12-13T23:46:36.370Z,3.30
2022-12-13T23:49:04.700Z,3.67
2022-12-13T23:51:32.327Z,3.87
2022-12-13T23:53:59.753Z,4.07
2022-12-13T23:56:28.556Z,6.97
2022-12-13T23:58:55.992Z,2.97
